createdAt,value
2023-05-18T00:01:31.845Z,101585.19
2023-05-18T00:03:58.208Z,101681.88
2023-05-18T00:06:24.602Z,101661.41
2023-05-18T00:08:51.009Z,101709.91
2023-05-18T00:11:17.269Z,101824.78
2023-05-18T00:13:43.694Z,102025.47
2023-05-18T00:16:09.971Z,102020.91
2023-05-18T00:18:36.283Z,101982.69
2023-05-18T00:21:02.586Z,101866.28
2023-05-18T00:23:31.853Z,101753.16
2023-05-18T00:26:01.495Z,101807.59
2023-05-18T00:28:28.304Z,101816.31
2023-05-18T00:30:54.719Z,101796.88
2023-05-18T00:33:21.145Z,101711.34
2023-05-18T00:35:47.425Z,101650.72
2023-05-18T00:38:13.684Z,101568.81
2023-05-18T00:40:39.949Z,101521.41
2023-05-18T00:43:06.197Z,101543.03
2023-05-18T00:45:32.757Z,101710.81
2023-05-18T00:47:59.188Z,101987.97
2023-05-18T00:50:25.477Z,102181.41
2023-05-18T00:52:51.734Z,102155.88
2023-05-18T00:55:18.020Z,102013.56
2023-05-18T00:57:44.284Z,101898.13
2023-05-18T01:00:10.969Z,101821.28
2023-05-18T01:02:37.831Z,101819.03
2023-05-18T01:05:04.178Z,102006.06
2023-05-18T01:07:30.474Z,101901.78
2023-05-18T01:09:56.737Z,101779.88
2023-05-18T01:12:32.648Z,101935.09
2023-05-18T01:14:59.992Z,101885.84
2023-05-18T01:17:32.479Z,101944.00
2023-05-18T01:20:04.848Z,102096.97
2023-05-18T01:22:38.064Z,102021.69
2023-05-18T01:25:05.216Z,101845.75
2023-05-18T01:27:31.718Z,101817.44
2023-05-18T01:29:57.982Z,101735.50
2023-05-18T01:32:24.246Z,101662.00
2023-05-18T01:34:50.523Z,101602.41
2023-05-18T01:37:16.775Z,101561.16
2023-05-18T01:39:43.032Z,101586.63
2023-05-18T01:42:13.028Z,101639.25
2023-05-18T01:44:39.219Z,101611.91
2023-05-18T01:47:10.431Z,101598.25
2023-05-18T01:49:56.756Z,101902.91
2023-05-18T01:52:24.762Z,102091.47
2023-05-18T01:54:52.541Z,102254.13
2023-05-18T01:57:18.795Z,102200.09
2023-05-18T01:59:45.054Z,102054.19
2023-05-18T02:02:11.372Z,102029.34
2023-05-18T02:04:37.657Z,102015.00
2023-05-18T02:07:03.907Z,101975.19
2023-05-18T02:09:30.179Z,101954.38
2023-05-18T02:11:56.417Z,101848.47
2023-05-18T02:14:22.688Z,101718.13
2023-05-18T02:16:48.940Z,101645.22
2023-05-18T02:19:15.299Z,101565.81
2023-05-18T02:21:41.660Z,101763.00
2023-05-18T02:24:08.049Z,101729.22
2023-05-18T02:26:34.305Z,101643.81
2023-05-18T02:29:00.569Z,101579.63
2023-05-18T02:31:26.841Z,101925.91
2023-05-18T02:33:53.106Z,102066.06
2023-05-18T02:36:19.354Z,101997.78
2023-05-18T02:38:45.613Z,101904.78
2023-05-18T02:41:11.888Z,101845.97
2023-05-18T02:43:38.169Z,101756.44
2023-05-18T02:46:04.470Z,101661.69
2023-05-18T02:48:30.809Z,101574.97
2023-05-18T02:50:57.060Z,101706.78
2023-05-18T02:53:23.356Z,101893.97
2023-05-18T02:55:49.625Z,101930.41
2023-05-18T02:58:16.093Z,101866.03
2023-05-18T03:00:42.349Z,101794.81
2023-05-18T03:03:08.721Z,101782.56
2023-05-18T03:05:35.118Z,101715.91
2023-05-18T03:08:01.365Z,101636.25
2023-05-18T03:10:27.610Z,101594.94
2023-05-18T03:12:53.877Z,101663.84
2023-05-18T03:15:20.146Z,101707.53
2023-05-18T03:17:46.473Z,101808.22
2023-05-18T03:20:12.742Z,101764.63
2023-05-18T03:22:39.014Z,101854.53
2023-05-18T03:25:05.357Z,101869.88
2023-05-18T03:27:31.612Z,101856.03
2023-05-18T03:29:57.859Z,101904.88
2023-05-18T03:32:24.126Z,101934.91
2023-05-18T03:34:50.803Z,101889.59
2023-05-18T03:37:17.277Z,101824.69
2023-05-18T03:39:43.547Z,101892.03
2023-05-18T03:42:09.815Z,101877.78
2023-05-18T03:44:36.088Z,101959.47
2023-05-18T03:47:02.347Z,101863.91
2023-05-18T03:49:28.615Z,101760.34
2023-05-18T03:51:54.916Z,101677.97
2023-05-18T03:54:21.176Z,101921.69
2023-05-18T03:56:47.426Z,101922.69
2023-05-18T03:59:13.880Z,101816.16
2023-05-18T04:01:40.182Z,101844.84
2023-05-18T04:04:06.506Z,101904.94
2023-05-18T04:06:32.778Z,102074.13
2023-05-18T04:08:59.037Z,102033.34
2023-05-18T04:11:25.284Z,102075.59
2023-05-18T04:13:51.537Z,101947.91
2023-05-18T04:16:17.807Z,101996.91
2023-05-18T04:18:44.133Z,102080.13
2023-05-18T04:21:10.418Z,101982.31
2023-05-18T04:23:36.668Z,101960.16
2023-05-18T04:26:02.908Z,102042.81
2023-05-18T04:28:29.156Z,102184.72
2023-05-18T04:30:55.415Z,102197.41
2023-05-18T04:33:21.665Z,102210.38
2023-05-18T04:35:48.138Z,102229.44
2023-05-18T04:38:14.396Z,102299.38
2023-05-18T04:40:40.637Z,102315.03
2023-05-18T04:43:06.916Z,102362.38
2023-05-18T04:45:33.376Z,102392.03
2023-05-18T04:47:59.786Z,102398.69
2023-05-18T04:50:26.254Z,102382.75
2023-05-18T04:52:52.577Z,102368.03
2023-05-18T04:55:19.503Z,102368.56
2023-05-18T04:57:45.774Z,102354.25
2023-05-18T05:00:12.211Z,102344.75
2023-05-18T05:02:38.644Z,102334.84
2023-05-18T05:05:05.120Z,102313.03
2023-05-18T05:07:31.387Z,102295.13
2023-05-18T05:09:57.654Z,102280.59
2023-05-18T05:12:23.905Z,102249.22
2023-05-18T05:14:50.163Z,102219.69
2023-05-18T05:17:16.402Z,102186.13
2023-05-18T05:19:42.658Z,102155.44
2023-05-18T05:22:08.909Z,102117.09
2023-05-18T05:24:35.169Z,102064.16
2023-05-18T05:27:01.428Z,101948.41
2023-05-18T05:29:27.681Z,101859.25
2023-05-18T05:31:54.028Z,101749.28
2023-05-18T05:34:20.345Z,101774.63
2023-05-18T05:36:46.602Z,101685.81
2023-05-18T05:39:13.226Z,101636.78
2023-05-18T05:41:39.479Z,101592.41
2023-05-18T05:44:05.727Z,101269.50
2023-05-18T05:46:32.016Z,101023.97
2023-05-18T05:48:58.291Z,101143.59
2023-05-18T05:51:24.540Z,101171.22
2023-05-18T05:53:50.804Z,101004.00
2023-05-18T05:56:17.041Z,101073.94
2023-05-18T05:58:43.739Z,100994.53
2023-05-18T06:01:10.028Z,100725.41
2023-05-18T06:03:36.400Z,100817.00
2023-05-18T06:06:02.727Z,101011.75
2023-05-18T06:08:28.983Z,100600.34
2023-05-18T06:10:55.244Z,100271.81
2023-05-18T06:13:21.490Z,100480.97
2023-05-18T06:15:47.757Z,100635.19
2023-05-18T06:18:14.062Z,100707.81
2023-05-18T06:20:40.570Z,100765.94
2023-05-18T06:23:06.819Z,100848.50
2023-05-18T06:25:33.224Z,100823.31
2023-05-18T06:27:59.624Z,100463.09
2023-05-18T06:30:25.869Z,100741.84
2023-05-18T06:32:52.173Z,100982.88
2023-05-18T06:35:18.471Z,101185.63
2023-05-18T06:37:46.792Z,101289.66
2023-05-18T06:40:13.338Z,101307.56
2023-05-18T06:42:39.594Z,101251.34
2023-05-18T06:45:06.143Z,101284.81
2023-05-18T06:47:32.393Z,101123.69
2023-05-18T06:49:58.670Z,101215.75
2023-05-18T06:52:26.979Z,101198.50
2023-05-18T06:54:53.409Z,101337.28
2023-05-18T06:57:19.646Z,101087.13
2023-05-18T06:59:45.915Z,101099.84
2023-05-18T07:02:12.408Z,101216.59
2023-05-18T07:04:38.726Z,101316.31
2023-05-18T07:07:05.131Z,101253.53
2023-05-18T07:09:31.413Z,101533.00
2023-05-18T07:11:57.652Z,101648.53
2023-05-18T07:14:23.930Z,101627.47
2023-05-18T07:16:50.385Z,101612.59
2023-05-18T07:19:16.677Z,101620.03
2023-05-18T07:21:42.986Z,101526.84
2023-05-18T07:24:09.243Z,101442.91
2023-05-18T07:26:35.486Z,101518.41
2023-05-18T07:29:01.737Z,101575.50
2023-05-18T07:31:28.014Z,101508.09
2023-05-18T07:33:54.347Z,101493.03
2023-05-18T07:36:20.588Z,101482.91
2023-05-18T07:38:46.844Z,101396.09
2023-05-18T07:41:13.099Z,101207.41
2023-05-18T07:43:39.366Z,101172.50
2023-05-18T07:46:05.648Z,101219.75
2023-05-18T07:48:31.911Z,101125.94
2023-05-18T07:50:58.182Z,101204.28
2023-05-18T07:53:24.448Z,101305.72
2023-05-18T07:55:50.718Z,101161.75
2023-05-18T07:58:17.000Z,101064.00
2023-05-18T08:00:43.443Z,101091.03
2023-05-18T08:03:09.748Z,101002.00
2023-05-18T08:05:36.077Z,101171.63
2023-05-18T08:08:03.404Z,100860.59
2023-05-18T08:10:31.456Z,100979.97
2023-05-18T08:12:57.729Z,100996.19
2023-05-18T08:15:23.987Z,100712.06
2023-05-18T08:17:50.313Z,100584.75
2023-05-18T08:20:16.595Z,100705.78
2023-05-18T08:22:42.855Z,101007.66
2023-05-18T08:25:09.202Z,100968.59
2023-05-18T08:27:35.468Z,100750.75
2023-05-18T08:30:01.725Z,100936.75
2023-05-18T08:32:28.059Z,100938.25
2023-05-18T08:34:54.339Z,100700.06
2023-05-18T08:37:20.602Z,100856.84
2023-05-18T08:39:46.872Z,100878.66
2023-05-18T08:42:17.579Z,100796.69
2023-05-18T08:44:50.115Z,100800.72
2023-05-18T08:47:16.384Z,100658.97
2023-05-18T08:49:42.640Z,100812.44
2023-05-18T08:52:08.994Z,100709.94
2023-05-18T08:54:36.145Z,100682.34
2023-05-18T08:57:03.198Z,100630.63
2023-05-18T08:59:30.794Z,100574.03
2023-05-18T09:01:57.095Z,100669.34
2023-05-18T09:04:23.432Z,100654.59
2023-05-18T09:06:49.721Z,100852.81
2023-05-18T09:09:16.002Z,100626.78
2023-05-18T09:11:42.276Z,100881.97
2023-05-18T09:14:08.565Z,100889.34
2023-05-18T09:16:34.936Z,100817.06
2023-05-18T09:19:01.409Z,100807.44
2023-05-18T09:21:27.749Z,100845.75
2023-05-18T09:23:53.998Z,100576.47
2023-05-18T09:26:20.274Z,100557.13
2023-05-18T09:28:46.545Z,100701.97
2023-05-18T09:31:19.332Z,100576.41
2023-05-18T09:33:45.824Z,100231.41
2023-05-18T09:36:12.190Z,100388.19
2023-05-18T09:38:38.864Z,100348.81
2023-05-18T09:41:09.234Z,100319.63
2023-05-18T09:43:35.470Z,100217.13
2023-05-18T09:46:01.805Z,100057.50
2023-05-18T09:48:28.070Z,99954.84
2023-05-18T09:50:54.336Z,100207.06
2023-05-18T09:53:20.585Z,100035.31
2023-05-18T09:55:47.470Z,100067.16
2023-05-18T09:58:13.708Z,100366.44
2023-05-18T10:00:40.995Z,100087.88
2023-05-18T10:03:12.057Z,100031.13
2023-05-18T10:05:38.445Z,100486.75
2023-05-18T10:08:04.898Z,100372.25
2023-05-18T10:10:31.419Z,100426.91
2023-05-18T10:12:57.878Z,100297.13
2023-05-18T10:15:24.157Z,100251.78
2023-05-18T10:17:51.301Z,100275.31
2023-05-18T10:20:18.332Z,100507.75
2023-05-18T10:22:47.650Z,100709.41
2023-05-18T10:25:16.187Z,100488.84
2023-05-18T10:27:42.449Z,100503.56
2023-05-18T10:30:08.888Z,100433.91
2023-05-18T10:32:35.450Z,100225.38
2023-05-18T10:35:02.085Z,99944.41
2023-05-18T10:37:28.400Z,99782.50
2023-05-18T10:39:54.691Z,99955.88
2023-05-18T10:42:21.002Z,99772.28
2023-05-18T10:44:47.378Z,99744.13
2023-05-18T10:47:14.556Z,99370.06
2023-05-18T10:49:42.494Z,99400.91
2023-05-18T10:52:10.530Z,99430.84
2023-05-18T10:54:36.790Z,99536.47
2023-05-18T10:57:03.057Z,99731.72
2023-05-18T10:59:29.300Z,99743.69
2023-05-18T11:01:55.910Z,99977.50
2023-05-18T11:04:25.574Z,100063.50
2023-05-18T11:07:01.075Z,100013.88
2023-05-18T11:09:28.268Z,100224.97
2023-05-18T11:11:56.378Z,100363.84
2023-05-18T11:14:29.468Z,100584.03
2023-05-18T11:17:14.470Z,100612.41
2023-05-18T11:19:40.724Z,100443.03
2023-05-18T11:22:11.650Z,100214.25
2023-05-18T11:24:37.914Z,99859.72
2023-05-18T11:27:14.251Z,99764.81
2023-05-18T11:29:41.142Z,99977.03
2023-05-18T11:32:29.279Z,100019.56
2023-05-18T11:34:56.996Z,99665.31
2023-05-18T11:37:47.140Z,99907.13
2023-05-18T11:40:14.457Z,99947.34
2023-05-18T11:42:40.771Z,100007.56
2023-05-18T11:45:07.520Z,100097.34
2023-05-18T11:47:33.893Z,100231.53
2023-05-18T11:50:00.212Z,99933.59
2023-05-18T11:52:26.475Z,99736.31
2023-05-18T11:54:53.516Z,99588.56
2023-05-18T11:57:26.449Z,99725.59
2023-05-18T11:59:56.231Z,99646.97
2023-05-18T12:02:26.394Z,99353.13
2023-05-18T12:04:53.236Z,99509.97
2023-05-18T12:07:19.540Z,99506.47
2023-05-18T12:09:45.804Z,99677.44
2023-05-18T12:12:12.307Z,99691.31
2023-05-18T12:14:38.982Z,99580.47
2023-05-18T12:17:05.490Z,99608.06
2023-05-18T12:19:36.528Z,99379.47
2023-05-18T12:22:02.806Z,99275.75
2023-05-18T12:24:29.069Z,99291.41
2023-05-18T12:26:55.320Z,99576.84
2023-05-18T12:29:21.586Z,99332.56
2023-05-18T12:31:47.836Z,99410.97
2023-05-18T12:34:14.270Z,99403.88
2023-05-18T12:36:40.915Z,99529.28
2023-05-18T12:39:07.190Z,99741.50
2023-05-18T12:41:33.441Z,99558.63
2023-05-18T12:43:59.692Z,99687.81
2023-05-18T12:46:26.147Z,99501.47
2023-05-18T12:48:55.994Z,99418.84
2023-05-18T12:51:22.244Z,99750.78
2023-05-18T12:53:48.716Z,99836.28
2023-05-18T12:56:14.982Z,99712.75
2023-05-18T12:58:41.247Z,99767.16
2023-05-18T13:01:10.791Z,99685.25
2023-05-18T13:03:40.213Z,99869.00
2023-05-18T13:06:07.052Z,99914.19
2023-05-18T13:08:33.769Z,99819.47
2023-05-18T13:11:13.699Z,99945.91
2023-05-18T13:13:56.879Z,99958.28
2023-05-18T13:16:23.206Z,99879.13
2023-05-18T13:18:55.211Z,99832.63
2023-05-18T13:21:21.481Z,99898.03
2023-05-18T13:23:47.731Z,99979.97
2023-05-18T13:26:13.981Z,99939.56
2023-05-18T13:28:40.226Z,99971.72
2023-05-18T13:31:06.527Z,99900.19
2023-05-18T13:33:32.775Z,99806.16
2023-05-18T13:35:59.050Z,99923.69
2023-05-18T13:38:25.329Z,100128.94
2023-05-18T13:40:51.635Z,100021.31
2023-05-18T13:43:17.900Z,100068.16
2023-05-18T13:45:44.208Z,100028.94
2023-05-18T13:48:11.129Z,99892.28
2023-05-18T13:50:37.879Z,100224.38
2023-05-18T13:53:04.315Z,100402.34
2023-05-18T13:55:30.751Z,100481.47
2023-05-18T13:57:57.249Z,100471.44
2023-05-18T14:00:23.507Z,100655.97
2023-05-18T14:02:49.879Z,100614.09
2023-05-18T14:05:16.237Z,100655.09
2023-05-18T14:07:42.592Z,100607.31
2023-05-18T14:10:09.345Z,100618.81
2023-05-18T14:12:35.685Z,100619.84
2023-05-18T14:15:02.157Z,100679.88
2023-05-18T14:17:28.444Z,100569.22
2023-05-18T14:19:54.722Z,100702.09
2023-05-18T14:22:20.985Z,100597.09
2023-05-18T14:24:50.215Z,100703.19
2023-05-18T14:27:16.479Z,100675.91
2023-05-18T14:29:42.754Z,100726.56
2023-05-18T14:32:09.023Z,100738.13
2023-05-18T14:34:35.301Z,100641.50
2023-05-18T14:37:01.555Z,100689.06
2023-05-18T14:39:27.792Z,100739.72
2023-05-18T14:41:54.047Z,100616.06
2023-05-18T14:44:22.012Z,100729.72
2023-05-18T14:46:48.330Z,100714.25
2023-05-18T14:49:14.632Z,100682.72
2023-05-18T14:51:40.883Z,100788.00
2023-05-18T14:54:10.050Z,100758.59
2023-05-18T14:56:36.350Z,100629.47
2023-05-18T14:59:02.601Z,100752.00
2023-05-18T15:01:28.895Z,100659.63
2023-05-18T15:03:55.216Z,100730.78
2023-05-18T15:06:21.903Z,100842.84
2023-05-18T15:08:48.166Z,100660.16
2023-05-18T15:11:14.424Z,100703.44
2023-05-18T15:13:40.668Z,100732.81
2023-05-18T15:16:06.965Z,100722.06
2023-05-18T15:18:33.272Z,100849.34
2023-05-18T15:20:59.554Z,100638.34
2023-05-18T15:23:25.791Z,100759.53
2023-05-18T15:25:52.050Z,100794.69
2023-05-18T15:28:18.367Z,100785.56
2023-05-18T15:30:44.628Z,100726.78
2023-05-18T15:33:10.945Z,100749.91
2023-05-18T15:35:37.230Z,100677.22
2023-05-18T15:38:03.500Z,100622.66
2023-05-18T15:40:29.942Z,100685.38
2023-05-18T15:42:56.379Z,100732.56
2023-05-18T15:45:22.636Z,100659.09
2023-05-18T15:47:48.941Z,100661.47
2023-05-18T15:50:15.193Z,100601.13
2023-05-18T15:52:41.471Z,100757.69
2023-05-18T15:55:07.880Z,100814.38
2023-05-18T15:57:34.159Z,100705.16
2023-05-18T16:00:00.451Z,100783.34
2023-05-18T16:02:26.870Z,100656.16
2023-05-18T16:04:53.141Z,100633.38
2023-05-18T16:07:19.408Z,100629.72
2023-05-18T16:09:45.659Z,100684.25
2023-05-18T16:12:11.950Z,100669.88
2023-05-18T16:14:38.200Z,100636.81
2023-05-18T16:17:04.584Z,100599.81
2023-05-18T16:19:30.879Z,100590.09
2023-05-18T16:21:57.154Z,100628.16
2023-05-18T16:24:23.404Z,100696.34
2023-05-18T16:26:49.659Z,100800.19
2023-05-18T16:29:15.925Z,100760.31
2023-05-18T16:31:42.242Z,100873.09
2023-05-18T16:34:08.543Z,100998.66
2023-05-18T16:36:34.804Z,100792.34
2023-05-18T16:39:01.089Z,100828.78
2023-05-18T16:41:27.360Z,100789.16
2023-05-18T16:43:53.615Z,100765.03
2023-05-18T16:46:20.006Z,100706.28
2023-05-18T16:48:46.373Z,100691.09
2023-05-18T16:51:12.625Z,100797.84
2023-05-18T16:53:38.875Z,100848.81
2023-05-18T16:56:05.219Z,100639.44
2023-05-18T16:58:31.489Z,100640.47
2023-05-18T17:00:57.808Z,100643.34
2023-05-18T17:03:24.125Z,100627.03
2023-05-18T17:05:50.406Z,100726.94
2023-05-18T17:08:16.668Z,100819.81
2023-05-18T17:10:42.940Z,100845.69
2023-05-18T17:13:09.188Z,100881.69
2023-05-18T17:15:35.459Z,100871.72
2023-05-18T17:18:01.908Z,100943.19
2023-05-18T17:20:28.259Z,100965.34
2023-05-18T17:22:54.508Z,100961.50
2023-05-18T17:25:20.774Z,100995.50
2023-05-18T17:27:47.048Z,100953.03
2023-05-18T17:30:13.443Z,101098.94
2023-05-18T17:32:39.850Z,101152.75
2023-05-18T17:35:06.397Z,101245.88
2023-05-18T17:37:32.660Z,101223.25
2023-05-18T17:39:58.911Z,101131.97
2023-05-18T17:42:25.173Z,101134.31
2023-05-18T17:44:51.434Z,101074.56
2023-05-18T17:47:17.778Z,101151.25
2023-05-18T17:49:44.063Z,101141.47
2023-05-18T17:52:10.332Z,101389.97
2023-05-18T17:54:36.583Z,101457.28
2023-05-18T17:57:02.859Z,101515.19
2023-05-18T17:59:29.123Z,101620.91
2023-05-18T18:01:55.412Z,101631.13
2023-05-18T18:13:42.896Z,101740.19
2023-05-18T18:16:09.157Z,101810.41
2023-05-18T18:18:35.400Z,101882.97
2023-05-18T18:21:01.661Z,101930.38
2023-05-18T18:23:27.908Z,101992.69
2023-05-18T18:25:54.159Z,101999.97
2023-05-18T18:28:20.404Z,102074.47
2023-05-18T18:30:46.719Z,102072.28
2023-05-18T18:33:13.008Z,102072.53
2023-05-18T18:35:39.320Z,102079.75
2023-05-18T18:38:05.580Z,102060.91
2023-05-18T18:40:32.072Z,102065.72
2023-05-18T18:42:58.576Z,102077.34
2023-05-18T18:57:53.831Z,102120.03
2023-05-18T19:00:20.093Z,102122.03
2023-05-18T19:02:46.406Z,102130.25
2023-05-18T19:05:12.812Z,102143.69
2023-05-18T19:07:39.119Z,102137.88
2023-05-18T19:10:05.721Z,102119.88
2023-05-18T19:12:31.971Z,102091.31
2023-05-18T19:14:58.233Z,102123.66
2023-05-18T19:17:24.558Z,102092.00
2023-05-18T19:19:50.826Z,102024.78
2023-05-18T19:22:17.157Z,101960.13
2023-05-18T19:24:43.404Z,101916.75
2023-05-18T19:27:09.679Z,101880.22
2023-05-18T19:29:35.918Z,101827.22
2023-05-18T19:32:02.328Z,101783.59
2023-05-18T19:34:28.652Z,101739.22
2023-05-18T19:36:54.914Z,101712.53
2023-05-18T19:39:21.198Z,101708.56
2023-05-18T19:41:47.458Z,101702.38
2023-05-18T19:44:14.090Z,101694.34
2023-05-18T19:46:40.355Z,101701.81
2023-05-18T19:49:06.603Z,101692.97
2023-05-18T19:51:33.201Z,101690.81
2023-05-18T19:53:59.453Z,101675.34
2023-05-18T19:56:25.706Z,101678.69
2023-05-18T19:58:51.965Z,101901.94
2023-05-18T20:01:18.481Z,102057.72
2023-05-18T20:03:44.934Z,102169.72
2023-05-18T20:06:11.315Z,102109.44
2023-05-18T20:08:37.591Z,101995.41
2023-05-18T20:11:03.845Z,101872.31
2023-05-18T20:13:30.101Z,101986.09
2023-05-18T20:15:59.367Z,102099.13
2023-05-18T20:18:25.620Z,102058.31
2023-05-18T20:23:59.750Z,101879.31
2023-05-18T20:26:26.475Z,101846.25
2023-05-18T20:28:52.730Z,101821.56
2023-05-18T20:53:01.920Z,101760.47
2023-05-18T20:55:28.186Z,101762.03
2023-05-18T20:57:54.460Z,101747.22
2023-05-18T21:00:20.727Z,101742.22
2023-05-18T21:02:47.166Z,101735.41
2023-05-18T21:05:13.646Z,101728.41
2023-05-18T21:07:39.942Z,101743.63
2023-05-18T21:10:09.438Z,101775.13
2023-05-18T21:12:35.729Z,101880.47
2023-05-18T21:15:01.964Z,101856.47
2023-05-18T21:17:28.251Z,101823.41
2023-05-18T21:19:54.541Z,101809.56
2023-05-18T21:22:20.791Z,101776.91
2023-05-18T21:24:47.055Z,101761.88
2023-05-18T21:27:13.314Z,101744.47
2023-05-18T21:29:39.600Z,101749.25
2023-05-18T21:32:05.958Z,101762.91
2023-05-18T21:34:32.287Z,101758.28
2023-05-18T21:36:58.543Z,101782.53
2023-05-18T21:39:24.841Z,101781.91
2023-05-18T21:41:51.091Z,101780.47
2023-05-18T21:44:17.348Z,101781.28
2023-05-18T21:46:43.592Z,101785.13
2023-05-18T21:49:09.986Z,101790.31
2023-05-18T21:51:36.242Z,101779.91
2023-05-18T21:54:02.508Z,101779.09
2023-05-18T21:56:28.764Z,101783.50
2023-05-18T21:58:55.142Z,101771.50
2023-05-18T22:01:21.564Z,101766.88
2023-05-18T22:03:48.001Z,101794.72
2023-05-18T22:06:14.274Z,101796.50
2023-05-18T22:08:40.522Z,101809.53
2023-05-18T22:11:06.764Z,101847.72
2023-05-18T22:13:33.036Z,101831.28
2023-05-18T22:15:59.307Z,101824.91
2023-05-18T22:18:25.559Z,101818.69
2023-05-18T22:20:51.810Z,101821.09
2023-05-18T22:23:18.077Z,101817.25
2023-05-18T22:25:45.000Z,101842.09
2023-05-18T22:28:11.274Z,101833.09
2023-05-18T22:30:37.526Z,101823.69
2023-05-18T22:33:03.867Z,101916.44
2023-05-18T22:35:30.154Z,101909.53
2023-05-18T22:37:56.411Z,101901.72
2023-05-18T22:40:22.947Z,101879.31
2023-05-18T22:42:49.199Z,101933.56
2023-05-18T22:45:15.441Z,101995.63
2023-05-18T22:47:41.722Z,101961.06
2023-05-18T22:50:08.334Z,101954.47
2023-05-18T22:52:34.616Z,101919.84
2023-05-18T22:55:00.947Z,101899.66
2023-05-18T22:57:27.276Z,101886.47
2023-05-18T22:59:53.535Z,101889.63
2023-05-18T23:02:19.852Z,101888.84
2023-05-18T23:04:46.159Z,101874.81
2023-05-18T23:07:12.414Z,101947.84
2023-05-18T23:09:38.671Z,102014.31
2023-05-18T23:12:05.385Z,102003.16
2023-05-18T23:14:31.630Z,102009.56
2023-05-18T23:16:57.866Z,101981.19
2023-05-18T23:19:24.341Z,102011.53
2023-05-18T23:21:50.644Z,102117.06
2023-05-18T23:24:16.890Z,102091.13
2023-05-18T23:26:43.475Z,102040.44
2023-05-18T23:29:09.818Z,102051.41
2023-05-18T23:31:36.173Z,102038.38
2023-05-18T23:34:02.537Z,102076.63
2023-05-18T23:36:29.946Z,102111.19
2023-05-18T23:38:56.450Z,102072.56
2023-05-18T23:41:22.803Z,102045.88
2023-05-18T23:43:49.211Z,102054.66
2023-05-18T23:46:15.573Z,102009.50
2023-05-18T23:48:41.944Z,102084.72
2023-05-18T23:51:08.193Z,102082.41
2023-05-18T23:53:34.459Z,102060.69
2023-05-18T23:56:00.720Z,102064.66
2023-05-18T23:58:27.733Z,102087.19
